Terminal Aerodrome Forecast
Issued by NWS Louisville, KY

Home | Current Version | Previous Version | Text Only | Print | Product List | Glossary On
Versions: 1 2 3 4 5 6 7 8 9 10 11 12 13 14 15 16 17
000
FTUS43 KLMK 230539
TAFLEX
TAF
KLEX 230539Z 2306/2406 10004KT 2SM BR OVC003
     FM231000 14005KT 3SM -SHRA BR OVC005 WS020/22045KT
     FM231300 17005KT 4SM SHRA BR OVC008
     FM231700 21013G19KT 5SM BR VCSH BKN021
     FM232200 24007KT 4SM BR VCSH SCT015 OVC021=

USA.gov is the U.S. government's official web portal to all federal, state and local government web resources and services.